メインページ
METAR-TAF:

METAR-TAF

空港 :

ポイント・ヴェレ空港

フツナ, フランス

緯度: 14-19S, 経度: 178-07W, 海抜: 6m

METAR: 見つかりません

時間: 12:19 (00:19 UTC)

予報

当レポートは1時間19分前の23:00(UTC)に作成
予報は21日の 00時(UTC)から 21日の 24時(UTC)まで有効
の風 10kt
視程10km以上
高度2500ftの雲はほとんどない
確率 30% :
21日の 12時(UTC)から 21日の 24時(UTC)まで一時的に
高度1400ftの千切れ雲あり
高度2000ftの雲はほとんどない, 塔状積雲.
にわか雨

TAF: NLWF 202300Z 2100/2124 09010KT 9999 FEW025 PROB30 TEMPO 2112/2124 SHRA BKN014 FEW020TCU

4,000以上の空港の気象観測と天気予報(METAR報とTAF報)

利用可能な観測所は地図上に黄色い丸と赤い丸で示す。

丸の上にカーソルを重ねると観測所名を参照できる。

次にクリックすると気象観測と天気予報を参照できる。

マップの切り替え:黒色「×」印の緑ボタンをクリックして拡大、「-」印の緑ボタンをクリックして縮小、緑色の三角印をクリックして隣りの地図に切り替え


METAR-TAF: